createdAt,value
2023-03-31T00:00:53.708Z,99529.47
2023-03-31T00:03:24.200Z,99508.56
2023-03-31T00:06:01.451Z,99492.81
2023-03-31T00:08:35.873Z,99496.41
2023-03-31T00:11:04.855Z,99494.69
2023-03-31T00:13:34.623Z,99467.66
2023-03-31T00:16:06.157Z,99487.69
2023-03-31T00:18:34.482Z,99485.13
2023-03-31T00:21:09.799Z,99472.09
2023-03-31T00:23:36.465Z,99453.91
2023-03-31T00:26:03.420Z,99456.53
2023-03-31T00:28:30.437Z,99447.91
2023-03-31T00:31:01.224Z,99417.41
2023-03-31T00:33:28.070Z,99427.09
2023-03-31T00:35:55.670Z,99408.03
2023-03-31T00:38:24.598Z,99401.09
2023-03-31T00:40:53.692Z,99400.31
2023-03-31T00:43:31.056Z,99393.41
2023-03-31T00:46:18.139Z,99353.44
2023-03-31T00:48:50.951Z,99363.88
2023-03-31T00:51:22.657Z,99341.31
2023-03-31T00:53:55.480Z,99357.97
2023-03-31T00:56:31.845Z,99345.84
2023-03-31T00:59:04.949Z,99338.06
2023-03-31T01:01:31.853Z,99325.06
2023-03-31T01:03:59.397Z,99315.56
2023-03-31T01:06:31.046Z,99299.03
2023-03-31T01:08:58.062Z,99317.34
2023-03-31T01:11:27.849Z,99321.75
2023-03-31T01:13:56.464Z,99315.72
2023-03-31T01:16:23.564Z,99313.16
2023-03-31T01:18:53.575Z,99307.09
2023-03-31T01:21:51.245Z,99287.97
2023-03-31T01:24:32.028Z,99290.69
2023-03-31T01:27:26.530Z,99296.78
2023-03-31T01:30:23.231Z,99270.75
2023-03-31T01:33:31.164Z,99271.66
2023-03-31T01:36:19.774Z,99250.84
2023-03-31T01:39:17.850Z,99225.53
2023-03-31T01:42:10.629Z,99238.69
2023-03-31T01:44:46.604Z,99207.44
2023-03-31T01:47:30.477Z,99216.06
2023-03-31T01:50:18.606Z,99200.50
2023-03-31T01:53:12.680Z,99214.34
2023-03-31T01:55:46.529Z,99206.53
2023-03-31T01:58:22.514Z,99168.28
2023-03-31T02:01:06.023Z,99171.88
2023-03-31T02:03:43.598Z,99187.47
2023-03-31T02:06:22.085Z,99165.78
2023-03-31T02:08:54.454Z,99172.72
2023-03-31T02:11:22.810Z,99163.19
2023-03-31T02:13:53.173Z,99136.22
2023-03-31T02:16:28.647Z,99140.66
2023-03-31T02:19:02.336Z,99128.50
2023-03-31T02:21:34.657Z,99114.63
2023-03-31T02:24:06.057Z,99121.56
2023-03-31T02:26:41.777Z,99116.34
2023-03-31T02:29:11.868Z,99107.66
2023-03-31T02:31:53.096Z,99080.72
2023-03-31T02:34:19.889Z,99113.72
2023-03-31T02:36:48.935Z,99086.84
2023-03-31T02:39:23.753Z,99092.00
2023-03-31T02:41:52.616Z,99085.94
2023-03-31T02:44:20.862Z,99085.94
2023-03-31T02:46:48.436Z,99080.72
2023-03-31T02:49:16.830Z,99028.59
2023-03-31T02:52:16.456Z,99059.94
2023-03-31T02:54:48.997Z,99068.59
2023-03-31T02:57:27.454Z,99051.25
2023-03-31T03:00:26.467Z,99051.22
2023-03-31T03:03:20.999Z,99049.53
2023-03-31T03:06:09.645Z,99030.44
2023-03-31T03:08:59.727Z,99035.66
2023-03-31T03:11:33.912Z,99005.28
2023-03-31T03:14:17.955Z,98995.78
2023-03-31T03:17:06.462Z,98974.94
2023-03-31T03:19:33.135Z,98980.16
2023-03-31T03:22:02.073Z,98974.97
2023-03-31T03:24:34.511Z,98993.16
2023-03-31T03:27:01.461Z,98986.22
2023-03-31T03:29:30.981Z,98974.94
2023-03-31T03:31:58.036Z,98948.06
2023-03-31T03:34:27.081Z,98962.81
2023-03-31T03:36:53.831Z,98940.25
2023-03-31T03:39:20.659Z,98915.97
2023-03-31T03:41:47.363Z,98936.81
2023-03-31T03:44:14.104Z,98923.81
2023-03-31T03:46:40.995Z,98891.69
2023-03-31T03:49:07.692Z,98915.16
2023-03-31T03:51:37.302Z,98910.81
2023-03-31T03:54:09.165Z,98909.09
2023-03-31T03:56:35.885Z,98909.09
2023-03-31T03:59:02.554Z,98902.09
2023-03-31T04:01:29.245Z,98890.00
2023-03-31T04:04:00.660Z,98879.59
2023-03-31T04:06:27.262Z,98877.00
2023-03-31T04:08:53.918Z,98867.47
2023-03-31T04:11:20.666Z,98851.84
2023-03-31T04:13:47.439Z,98869.16
2023-03-31T04:16:14.670Z,98853.56
2023-03-31T04:18:43.938Z,98855.31
2023-03-31T04:21:22.945Z,98847.50
2023-03-31T04:23:58.847Z,98838.84
2023-03-31T04:26:31.202Z,98826.72
2023-03-31T04:29:03.547Z,98815.44
2023-03-31T04:31:31.032Z,98808.50
2023-03-31T04:34:02.412Z,98808.50
2023-03-31T04:36:31.553Z,98798.13
2023-03-31T04:39:01.376Z,98763.47
2023-03-31T04:41:28.157Z,98806.78
2023-03-31T04:43:54.806Z,98772.13
2023-03-31T04:46:25.572Z,98799.00
2023-03-31T04:48:52.299Z,98778.19
2023-03-31T04:51:21.407Z,98779.94
2023-03-31T04:53:48.094Z,98779.06
2023-03-31T04:56:16.959Z,98780.78
2023-03-31T04:58:44.671Z,98770.38
2023-03-31T05:01:13.737Z,98778.19
2023-03-31T05:03:40.524Z,98770.38
2023-03-31T05:06:09.937Z,98743.53
2023-03-31T05:08:37.404Z,98755.66
2023-03-31T05:11:07.078Z,98755.66
2023-03-31T05:13:33.848Z,98749.59
2023-03-31T05:16:07.764Z,98746.13
2023-03-31T05:18:35.486Z,98758.25
2023-03-31T05:21:15.976Z,98744.41
2023-03-31T05:23:46.011Z,98742.66
2023-03-31T05:26:13.818Z,98752.22
2023-03-31T05:28:41.541Z,98746.13
2023-03-31T05:31:09.551Z,98732.25
2023-03-31T05:33:40.515Z,98741.81
2023-03-31T05:36:15.795Z,98751.34
2023-03-31T05:38:43.080Z,98721.00
2023-03-31T05:41:11.218Z,98735.72
2023-03-31T05:43:40.450Z,98727.06
2023-03-31T05:46:09.499Z,98739.22
2023-03-31T05:48:41.347Z,98738.34
2023-03-31T05:51:10.380Z,98747.88
2023-03-31T05:53:37.090Z,98747.88
2023-03-31T05:56:08.573Z,98741.78
2023-03-31T05:58:36.406Z,98723.59
2023-03-31T06:01:08.738Z,98750.44
2023-03-31T06:03:42.572Z,98745.28
2023-03-31T06:06:10.569Z,98752.19
2023-03-31T06:08:38.032Z,98723.63
2023-03-31T06:11:09.593Z,98737.47
2023-03-31T06:13:39.534Z,98726.19
2023-03-31T06:16:06.930Z,98758.25
2023-03-31T06:18:35.413Z,98734.88
2023-03-31T06:21:02.247Z,98700.22
2023-03-31T06:23:31.656Z,98699.34
2023-03-31T06:26:08.401Z,98735.72
2023-03-31T06:28:36.257Z,98750.47
2023-03-31T06:31:06.286Z,98725.34
2023-03-31T06:33:34.427Z,98732.25
2023-03-31T06:36:04.333Z,98721.00
2023-03-31T06:38:31.963Z,98718.41
2023-03-31T06:40:58.797Z,98727.06
2023-03-31T06:43:25.924Z,98734.00
2023-03-31T06:45:56.551Z,98731.41
2023-03-31T06:48:25.301Z,98725.31
2023-03-31T06:50:54.157Z,98734.00
2023-03-31T06:53:22.289Z,98728.78
2023-03-31T06:55:49.077Z,98738.34
2023-03-31T06:58:18.292Z,98727.06
2023-03-31T07:00:47.918Z,98704.53
2023-03-31T07:03:19.060Z,98718.41
2023-03-31T07:05:50.421Z,98726.19
2023-03-31T07:08:20.581Z,98742.66
2023-03-31T07:10:49.180Z,98740.91
2023-03-31T07:13:17.193Z,98738.34
2023-03-31T07:15:44.649Z,98720.97
2023-03-31T07:18:12.775Z,98720.97
2023-03-31T07:20:39.455Z,98724.44
2023-03-31T07:23:06.728Z,98728.78
2023-03-31T07:25:35.584Z,98741.78
2023-03-31T07:28:04.931Z,98734.84
2023-03-31T07:30:31.622Z,98737.44
2023-03-31T07:32:58.613Z,98729.63
2023-03-31T07:35:25.962Z,98740.03
2023-03-31T07:37:52.866Z,98721.81
2023-03-31T07:40:28.912Z,98733.13
2023-03-31T07:42:56.481Z,98725.34
2023-03-31T07:45:25.718Z,98736.59
2023-03-31T07:47:54.635Z,98727.91
2023-03-31T07:50:22.597Z,98733.09
2023-03-31T07:52:52.499Z,98734.00
2023-03-31T07:55:23.928Z,98732.25
2023-03-31T07:57:51.471Z,98734.84
2023-03-31T08:00:19.161Z,98737.47
2023-03-31T08:02:46.159Z,98746.13
2023-03-31T08:05:15.619Z,98748.72
2023-03-31T08:07:45.116Z,98743.53
2023-03-31T08:10:18.096Z,98757.41
2023-03-31T08:12:44.930Z,98748.69
2023-03-31T08:15:11.778Z,98753.91
2023-03-31T08:17:39.072Z,98753.03
2023-03-31T08:20:10.399Z,98753.88
2023-03-31T08:22:39.151Z,98732.22
2023-03-31T08:25:08.425Z,98758.22
2023-03-31T08:27:36.746Z,98759.94
2023-03-31T08:30:10.417Z,98767.75
2023-03-31T08:32:39.888Z,98749.50
2023-03-31T08:35:07.370Z,98754.69
2023-03-31T08:37:34.341Z,98748.56
2023-03-31T08:40:01.213Z,98747.66
2023-03-31T08:42:47.710Z,98771.81
2023-03-31T08:45:34.633Z,98760.44
2023-03-31T08:48:08.327Z,98747.34
2023-03-31T08:50:40.078Z,98761.19
2023-03-31T08:53:13.971Z,98761.16
2023-03-31T08:55:52.227Z,98755.97
2023-03-31T08:58:40.388Z,98749.84
2023-03-31T09:01:17.248Z,98760.22
2023-03-31T09:04:12.530Z,98774.09
2023-03-31T09:06:54.915Z,98767.13
2023-03-31T09:09:33.969Z,98774.94
2023-03-31T09:12:09.802Z,98773.16
2023-03-31T09:15:05.240Z,98774.03
2023-03-31T09:17:39.737Z,98732.50
2023-03-31T09:20:17.711Z,98774.16
2023-03-31T09:23:14.862Z,98785.38
2023-03-31T09:25:44.871Z,98787.97
2023-03-31T09:28:26.186Z,98787.06
2023-03-31T09:30:54.518Z,98782.72
2023-03-31T09:33:32.397Z,98772.25
2023-03-31T09:36:03.461Z,98774.88
2023-03-31T09:38:31.303Z,98752.34
2023-03-31T09:40:59.196Z,98773.19
2023-03-31T09:43:31.573Z,98786.22
2023-03-31T09:46:09.208Z,98793.13
2023-03-31T09:48:39.028Z,98792.28
2023-03-31T09:51:14.658Z,98795.75
2023-03-31T09:53:47.871Z,98808.78
2023-03-31T09:56:33.188Z,98804.38
2023-03-31T09:59:05.623Z,98800.81
2023-03-31T10:01:32.587Z,98785.97
2023-03-31T10:03:59.772Z,98807.47
2023-03-31T10:06:28.726Z,98806.50
2023-03-31T10:08:57.716Z,98788.31
2023-03-31T10:11:28.602Z,98809.00
2023-03-31T10:13:59.104Z,98816.94
2023-03-31T10:16:34.889Z,98776.31
2023-03-31T10:19:20.226Z,98816.19
2023-03-31T10:21:52.563Z,98813.56
2023-03-31T10:24:20.103Z,98822.84
2023-03-31T10:26:57.273Z,98801.91
2023-03-31T10:29:42.085Z,98831.25
2023-03-31T10:32:14.825Z,98830.06
2023-03-31T10:34:43.088Z,98809.84
2023-03-31T10:37:20.558Z,98844.00
2023-03-31T10:39:49.847Z,98808.84
2023-03-31T10:42:25.094Z,98824.94
2023-03-31T10:45:11.721Z,98840.19
2023-03-31T10:47:42.651Z,98858.16
2023-03-31T10:50:15.242Z,98863.19
2023-03-31T10:52:48.984Z,98864.28
2023-03-31T10:55:27.955Z,98843.72
2023-03-31T10:58:19.946Z,98842.38
2023-03-31T11:00:57.877Z,98875.44
2023-03-31T11:03:40.418Z,98894.78
2023-03-31T11:06:20.803Z,98876.66
2023-03-31T11:09:12.522Z,98902.03
2023-03-31T11:12:02.397Z,98906.59
2023-03-31T11:14:55.579Z,98919.06
2023-03-31T11:17:30.572Z,98914.03
2023-03-31T11:20:19.445Z,98906.38
2023-03-31T11:23:00.814Z,98893.69
2023-03-31T11:25:27.367Z,98932.91
2023-03-31T11:28:34.313Z,98938.25
2023-03-31T11:31:28.723Z,98933.91
2023-03-31T11:34:29.575Z,98944.44
2023-03-31T11:37:13.310Z,98944.50
2023-03-31T11:40:11.785Z,98943.66
2023-03-31T11:42:48.455Z,98943.75
2023-03-31T11:45:19.728Z,98969.81
2023-03-31T11:47:49.544Z,98978.50
2023-03-31T11:50:27.989Z,98960.31
2023-03-31T11:53:04.315Z,98974.19
2023-03-31T11:55:32.896Z,98994.16
2023-03-31T11:58:08.569Z,99015.03
2023-03-31T12:00:41.374Z,98973.41
2023-03-31T12:03:16.861Z,99008.13
2023-03-31T12:05:48.777Z,99013.41
2023-03-31T12:08:39.142Z,99014.31
2023-03-31T12:11:09.819Z,98991.75
2023-03-31T12:13:44.187Z,99026.56
2023-03-31T12:16:38.431Z,99039.69
2023-03-31T12:19:12.535Z,99044.06
2023-03-31T12:21:45.403Z,99054.53
2023-03-31T12:24:13.582Z,99065.00
2023-03-31T12:26:52.599Z,99069.38
2023-03-31T12:29:31.154Z,99065.03
2023-03-31T12:32:01.418Z,99040.72
2023-03-31T12:34:30.807Z,99058.09
2023-03-31T12:37:15.959Z,99070.28
2023-03-31T12:39:54.816Z,99069.41
2023-03-31T12:42:42.550Z,99058.16
2023-03-31T12:45:21.094Z,99068.63
2023-03-31T12:48:02.650Z,99077.31
2023-03-31T12:50:46.882Z,99105.97
2023-03-31T12:54:11.269Z,99115.53
2023-03-31T12:57:02.752Z,99114.66
2023-03-31T12:59:36.921Z,99128.59
2023-03-31T13:02:09.654Z,99124.25
2023-03-31T13:04:38.290Z,99130.34
2023-03-31T13:07:27.392Z,99137.34
2023-03-31T13:10:19.233Z,99143.47
2023-03-31T13:13:16.245Z,99144.41
2023-03-31T13:15:56.037Z,99154.88
2023-03-31T13:18:23.679Z,99164.44
2023-03-31T13:21:01.227Z,99139.22
2023-03-31T13:23:38.206Z,99167.09
2023-03-31T13:26:07.873Z,99151.41
2023-03-31T13:28:43.915Z,99160.97
2023-03-31T13:31:17.700Z,99173.16
2023-03-31T13:34:01.774Z,99181.84
2023-03-31T13:36:34.645Z,99180.13
2023-03-31T13:39:19.671Z,99183.53
2023-03-31T13:42:32.319Z,99191.38
2023-03-31T13:45:27.255Z,99195.72
2023-03-31T13:48:20.219Z,99192.22
2023-03-31T13:50:56.231Z,99204.41
2023-03-31T13:53:22.798Z,99207.88
2023-03-31T13:56:08.841Z,99216.56
2023-03-31T13:58:44.391Z,99213.97
2023-03-31T14:01:27.803Z,99233.94
2023-03-31T14:04:15.768Z,99233.97
2023-03-31T14:07:18.266Z,99240.88
2023-03-31T14:09:55.135Z,99229.63
2023-03-31T14:12:38.953Z,99244.44
2023-03-31T14:15:21.315Z,99247.88
2023-03-31T14:17:50.498Z,99234.00
2023-03-31T14:20:51.748Z,99260.94
2023-03-31T14:23:56.784Z,99232.25
2023-03-31T14:26:42.450Z,99260.94
2023-03-31T14:29:12.808Z,99260.94
2023-03-31T14:31:53.192Z,99267.03
2023-03-31T14:34:39.962Z,99274.00
2023-03-31T14:37:22.927Z,99282.69
2023-03-31T14:39:56.659Z,99247.03
2023-03-31T14:42:39.707Z,99277.47
2023-03-31T14:45:17.149Z,99250.50
2023-03-31T14:47:54.371Z,99286.13
2023-03-31T14:50:21.226Z,99300.06
2023-03-31T14:52:51.168Z,99290.50
2023-03-31T14:55:26.653Z,99302.66
2023-03-31T14:58:03.953Z,99288.75
2023-03-31T15:00:33.527Z,99298.34
2023-03-31T15:03:02.278Z,99285.28
2023-03-31T15:05:32.431Z,99304.41
2023-03-31T15:08:02.373Z,99327.91
2023-03-31T15:10:35.920Z,99332.25
2023-03-31T15:13:09.177Z,99329.66
2023-03-31T15:15:36.057Z,99335.72
2023-03-31T15:18:03.435Z,99341.81
2023-03-31T15:20:38.543Z,99338.34
2023-03-31T15:23:25.094Z,99345.25
2023-03-31T15:26:01.014Z,99333.91
2023-03-31T15:28:39.930Z,99331.31
2023-03-31T15:31:10.521Z,99360.00
2023-03-31T15:33:42.096Z,99339.94
2023-03-31T15:36:14.639Z,99366.00
2023-03-31T15:38:44.121Z,99371.19
2023-03-31T15:41:17.056Z,99363.38
2023-03-31T15:44:07.488Z,99392.16
2023-03-31T15:46:43.288Z,99390.44
2023-03-31T15:49:21.823Z,99393.06
2023-03-31T15:51:50.719Z,99397.44
2023-03-31T15:54:42.199Z,99394.88
2023-03-31T15:57:14.543Z,99383.53
2023-03-31T15:59:55.575Z,99385.31
2023-03-31T16:02:27.503Z,99388.78
2023-03-31T16:05:06.179Z,99353.13
2023-03-31T16:07:44.668Z,99407.06
2023-03-31T16:10:22.336Z,99422.75
2023-03-31T16:13:04.984Z,99428.84
2023-03-31T16:15:38.424Z,99393.16
2023-03-31T16:18:35.040Z,99432.31
2023-03-31T16:21:05.426Z,99429.72
2023-03-31T16:23:38.758Z,99429.72
2023-03-31T16:26:07.119Z,99426.25
2023-03-31T16:28:38.466Z,99444.50
2023-03-31T16:31:25.700Z,99446.25
2023-03-31T16:33:55.406Z,99422.75
2023-03-31T16:36:22.266Z,99448.00
2023-03-31T16:38:53.204Z,99445.41
2023-03-31T16:41:21.722Z,99466.28
2023-03-31T16:43:49.642Z,99474.97
2023-03-31T16:46:16.488Z,99465.38
2023-03-31T16:48:43.242Z,99465.38
2023-03-31T16:51:10.168Z,99470.59
2023-03-31T16:53:37.190Z,99472.31
2023-03-31T16:56:07.577Z,99492.34
2023-03-31T16:58:35.964Z,99473.19
2023-03-31T17:01:03.668Z,99494.03
2023-03-31T17:03:30.897Z,99495.78
2023-03-31T17:05:59.360Z,99487.91
2023-03-31T17:08:28.784Z,99485.31
2023-03-31T17:11:00.420Z,99483.53
2023-03-31T17:13:30.946Z,99528.75
2023-03-31T17:16:04.589Z,99516.56
2023-03-31T17:18:42.235Z,99520.00
2023-03-31T17:21:11.731Z,99534.81
2023-03-31T17:23:39.388Z,99509.44
2023-03-31T17:26:15.605Z,99525.22
2023-03-31T17:28:42.933Z,99503.31
2023-03-31T17:31:13.693Z,99534.75
2023-03-31T17:33:40.560Z,99547.72
2023-03-31T17:36:07.583Z,99552.94
2023-03-31T17:38:34.731Z,99563.34
2023-03-31T17:41:13.091Z,99561.56
2023-03-31T17:43:40.285Z,99572.88
2023-03-31T17:46:13.229Z,99563.28
2023-03-31T17:48:41.303Z,99554.50
2023-03-31T17:51:10.435Z,99594.56
2023-03-31T17:53:37.225Z,99580.63
2023-03-31T17:56:04.603Z,99583.25
2023-03-31T17:58:32.472Z,99575.38
2023-03-31T18:01:01.893Z,99592.78
2023-03-31T18:03:29.328Z,99602.31
2023-03-31T18:06:02.277Z,99578.72
2023-03-31T18:08:30.110Z,99576.09
2023-03-31T18:10:56.836Z,99592.63
2023-03-31T18:13:25.925Z,99562.09
2023-03-31T18:15:54.817Z,99611.78
2023-03-31T18:18:23.608Z,99612.59
2023-03-31T18:20:50.377Z,99617.81
2023-03-31T18:23:17.034Z,99628.22
2023-03-31T18:25:46.146Z,99589.78
2023-03-31T18:28:14.904Z,99617.69
2023-03-31T18:30:43.595Z,99642.09
2023-03-31T18:33:11.583Z,99645.53
2023-03-31T18:35:39.446Z,99651.59
2023-03-31T18:38:07.266Z,99633.28
2023-03-31T18:40:33.994Z,99659.41
2023-03-31T18:43:02.920Z,99628.69
2023-03-31T18:45:30.887Z,99664.56
2023-03-31T18:47:58.221Z,99686.25
2023-03-31T18:50:26.005Z,99676.66
2023-03-31T18:52:54.489Z,99658.31
2023-03-31T18:55:24.346Z,99676.56
2023-03-31T18:57:51.299Z,99686.16
2023-03-31T19:00:20.695Z,99686.00
2023-03-31T19:02:47.645Z,99681.63
2023-03-31T19:05:14.371Z,99699.00
2023-03-31T19:07:41.179Z,99703.28
2023-03-31T19:10:08.431Z,99712.91
2023-03-31T19:12:35.308Z,99655.19
2023-03-31T19:15:02.194Z,99701.50
2023-03-31T19:17:29.132Z,99710.16
2023-03-31T19:19:55.837Z,99655.94
2023-03-31T19:22:25.424Z,99730.13
2023-03-31T19:24:52.327Z,99735.34
2023-03-31T19:27:21.987Z,99744.91
2023-03-31T19:29:48.732Z,99700.31
2023-03-31T19:32:16.074Z,99736.13
2023-03-31T19:34:43.781Z,99755.25
2023-03-31T19:37:13.676Z,99749.16
2023-03-31T19:39:40.377Z,99750.84
2023-03-31T19:42:07.022Z,99718.44
2023-03-31T19:44:35.769Z,99762.91
2023-03-31T19:47:02.470Z,99721.81
2023-03-31T19:49:29.253Z,99757.56
2023-03-31T19:51:56.594Z,99777.59
2023-03-31T19:54:23.347Z,99755.63
2023-03-31T19:56:50.110Z,99774.91
2023-03-31T19:59:16.980Z,99768.69
2023-03-31T20:01:43.823Z,99771.25
2023-03-31T20:04:12.206Z,99789.53
2023-03-31T20:06:38.936Z,99789.50
2023-03-31T20:09:06.415Z,99795.59
2023-03-31T20:11:33.455Z,99779.84
2023-03-31T20:14:04.276Z,99811.22
2023-03-31T20:16:31.972Z,99808.56
2023-03-31T20:19:01.973Z,99806.78
2023-03-31T20:21:30.363Z,99796.22
2023-03-31T20:23:57.313Z,99815.50
2023-03-31T20:26:26.490Z,99786.53
2023-03-31T20:28:55.009Z,99809.34
2023-03-31T20:31:26.202Z,99803.09
2023-03-31T20:33:54.221Z,99810.19
2023-03-31T20:36:25.144Z,99830.22
2023-03-31T20:38:55.262Z,99804.84
2023-03-31T20:41:24.688Z,99776.81
2023-03-31T20:43:51.510Z,99840.69
2023-03-31T20:46:21.662Z,99810.84
2023-03-31T20:48:51.523Z,99851.13
2023-03-31T20:51:22.022Z,99844.13
2023-03-31T20:53:53.037Z,99845.91
2023-03-31T20:56:25.982Z,99856.31
2023-03-31T20:58:59.187Z,99856.28
2023-03-31T21:01:32.951Z,99861.47
2023-03-31T21:04:04.288Z,99855.31
2023-03-31T21:06:38.686Z,99823.53
2023-03-31T21:09:06.008Z,99886.47
2023-03-31T21:11:33.180Z,99877.84
2023-03-31T21:14:03.072Z,99899.59
2023-03-31T21:16:29.815Z,99899.53
2023-03-31T21:18:57.148Z,99901.34
2023-03-31T21:21:24.614Z,99904.84
2023-03-31T21:23:54.184Z,99910.88
2023-03-31T21:26:21.962Z,99923.06
2023-03-31T21:28:53.889Z,99916.94
2023-03-31T21:31:24.145Z,99923.81
2023-03-31T21:33:53.984Z,99907.16
2023-03-31T21:36:22.768Z,99918.44
2023-03-31T21:38:53.358Z,99934.25
2023-03-31T21:41:30.724Z,99924.63
2023-03-31T21:44:00.505Z,99937.63
2023-03-31T21:46:33.525Z,99933.19
2023-03-31T21:49:01.321Z,99955.94
2023-03-31T21:51:28.781Z,99931.34
2023-03-31T21:53:56.062Z,99944.44
2023-03-31T21:56:28.317Z,99962.81
2023-03-31T21:58:58.932Z,99947.81
2023-03-31T22:01:25.656Z,99976.63
2023-03-31T22:03:54.599Z,99966.91
2023-03-31T22:06:22.476Z,99964.34
2023-03-31T22:08:49.166Z,99975.66
2023-03-31T22:11:16.207Z,99968.59
2023-03-31T22:13:42.857Z,99979.06
2023-03-31T22:16:21.939Z,99991.31
2023-03-31T22:18:50.417Z,99956.13
2023-03-31T22:21:28.773Z,100000.03
2023-03-31T22:23:58.256Z,100017.44
2023-03-31T22:26:27.295Z,100014.84
2023-03-31T22:28:54.518Z,100013.97
2023-03-31T22:31:21.754Z,100021.75
2023-03-31T22:33:49.064Z,100020.91
2023-03-31T22:36:16.233Z,100020.97
2023-03-31T22:38:45.206Z,100031.38
2023-03-31T22:41:16.222Z,100036.50
2023-03-31T22:43:47.620Z,100041.72
2023-03-31T22:46:15.007Z,100041.84
2023-03-31T22:48:41.773Z,100003.09
2023-03-31T22:51:12.141Z,100057.41
2023-03-31T22:53:43.369Z,100053.94
2023-03-31T22:56:12.048Z,100029.25
2023-03-31T22:58:41.363Z,100054.69
2023-03-31T23:01:09.945Z,100064.25
2023-03-31T23:03:36.802Z,100079.13
2023-03-31T23:06:07.199Z,100037.97
2023-03-31T23:08:35.915Z,100063.41
2023-03-31T23:11:05.082Z,100062.47
2023-03-31T23:13:37.954Z,100074.59
2023-03-31T23:16:13.555Z,100070.97
2023-03-31T23:18:46.821Z,100075.28
2023-03-31T23:21:14.967Z,100086.75
2023-03-31T23:23:42.378Z,100101.47
2023-03-31T23:26:09.347Z,100104.06
2023-03-31T23:28:38.072Z,100103.97
2023-03-31T23:31:05.006Z,100107.41
2023-03-31T23:33:31.744Z,100085.38
2023-03-31T23:36:03.822Z,100117.69
2023-03-31T23:38:33.761Z,100122.78
2023-03-31T23:41:01.728Z,100113.88
2023-03-31T23:43:31.143Z,100128.72
2023-03-31T23:45:57.820Z,100115.59
2023-03-31T23:48:24.591Z,100137.38
2023-03-31T23:50:53.633Z,100134.78
2023-03-31T23:53:20.367Z,100144.50
2023-03-31T23:55:58.058Z,100136.72
2023-03-31T23:58:26.296Z,100141.03
